createdAt,value
2023-02-08T00:02:29.686Z,94.40
2023-02-08T00:05:00.720Z,94.40
2023-02-08T00:07:32.326Z,94.40
2023-02-08T00:10:04.633Z,94.40
2023-02-08T00:12:36.893Z,94.30
2023-02-08T00:15:08.865Z,94.20
2023-02-08T00:17:40.113Z,94.10
2023-02-08T00:20:12.272Z,94.10
2023-02-08T00:22:43.375Z,94.10
2023-02-08T00:25:14.469Z,94.10
2023-02-08T00:27:45.691Z,94.10
2023-02-08T00:30:16.872Z,94.10
2023-02-08T00:32:49.101Z,94.20
2023-02-08T00:35:20.284Z,94.20
2023-02-08T00:37:51.314Z,94.20
2023-02-08T00:40:22.505Z,94.10
2023-02-08T00:42:53.551Z,94.20
2023-02-08T00:45:24.843Z,94.30
2023-02-08T00:47:55.893Z,94.30
2023-02-08T00:50:27.297Z,94.20
2023-02-08T00:52:58.957Z,94.20
2023-02-08T00:55:30.123Z,94.20
2023-02-08T00:58:01.240Z,94.20
2023-02-08T01:00:32.776Z,94.10
2023-02-08T01:03:04.660Z,94.00
2023-02-08T01:05:36.943Z,93.90
2023-02-08T01:08:08.201Z,94.00
2023-02-08T01:10:39.738Z,94.00
2023-02-08T01:13:12.690Z,93.90
2023-02-08T01:15:46.542Z,93.90
2023-02-08T01:18:18.088Z,93.80
2023-02-08T01:20:49.322Z,93.80
2023-02-08T01:23:20.404Z,93.80
2023-02-08T01:25:51.548Z,93.80
2023-02-08T01:28:22.583Z,93.70
2023-02-08T01:30:54.014Z,93.70
2023-02-08T01:33:25.065Z,93.70
2023-02-08T01:35:56.946Z,93.50
2023-02-08T01:38:28.695Z,93.60
2023-02-08T01:40:59.716Z,93.60
2023-02-08T01:43:50.900Z,93.30
2023-02-08T01:46:22.669Z,93.80
2023-02-08T01:49:14.194Z,93.30
2023-02-08T01:52:09.870Z,93.20
2023-02-08T01:54:48.120Z,93.10
2023-02-08T01:57:19.669Z,93.10
2023-02-08T01:59:56.180Z,93.20
2023-02-08T02:02:28.708Z,93.10
2023-02-08T02:05:00.107Z,93.00
2023-02-08T02:07:34.915Z,93.00
2023-02-08T02:10:08.708Z,92.80
2023-02-08T02:12:41.387Z,92.70
2023-02-08T02:15:13.506Z,92.70
2023-02-08T02:17:46.409Z,92.50
2023-02-08T02:20:37.920Z,92.20
2023-02-08T02:23:45.390Z,92.20
2023-02-08T02:26:24.452Z,91.70
2023-02-08T02:29:32.476Z,91.50
2023-02-08T02:32:08.453Z,91.40
2023-02-08T02:34:44.625Z,91.10
2023-02-08T02:37:21.856Z,91.00
2023-02-08T02:39:58.372Z,90.70
2023-02-08T02:43:06.068Z,90.40
2023-02-08T02:45:45.124Z,90.50
2023-02-08T02:48:21.584Z,90.10
2023-02-08T02:51:12.804Z,89.70
2023-02-08T02:54:18.362Z,89.60
2023-02-08T02:56:51.562Z,88.90
2023-02-08T02:59:23.697Z,89.20
2023-02-08T03:01:57.496Z,88.60
2023-02-08T03:04:39.906Z,89.10
2023-02-08T03:07:26.111Z,88.80
2023-02-08T03:10:15.681Z,88.20
2023-02-08T03:13:06.853Z,87.60
2023-02-08T03:15:51.884Z,87.30
2023-02-08T03:18:50.449Z,87.30
2023-02-08T03:21:45.181Z,87.40
2023-02-08T03:24:27.452Z,88.10
2023-02-08T03:27:15.558Z,87.20
2023-02-08T03:30:07.449Z,87.20
2023-02-08T03:32:47.105Z,87.00
2023-02-08T03:35:29.318Z,86.70
2023-02-08T03:38:11.954Z,86.80
2023-02-08T03:40:48.180Z,87.50
2023-02-08T03:43:24.844Z,86.30
2023-02-08T03:45:58.758Z,86.20
2023-02-08T03:48:31.127Z,86.40
2023-02-08T03:51:04.391Z,85.00
2023-02-08T03:53:38.503Z,85.30
2023-02-08T03:56:21.425Z,83.80
2023-02-08T03:58:55.107Z,82.90
2023-02-08T04:01:31.667Z,82.30
2023-02-08T04:04:03.505Z,81.80
2023-02-08T04:06:35.434Z,81.10
2023-02-08T04:09:08.708Z,80.60
2023-02-08T04:11:46.117Z,80.40
2023-02-08T04:14:17.823Z,79.20
2023-02-08T04:16:48.912Z,79.20
2023-02-08T04:19:20.135Z,77.20
2023-02-08T04:24:32.981Z,77.70
2023-02-08T04:27:05.899Z,77.80
2023-02-08T04:29:42.918Z,77.70
2023-02-08T04:32:33.369Z,76.60
2023-02-08T04:35:06.152Z,77.00
2023-02-08T04:37:37.880Z,76.10
2023-02-08T04:40:09.690Z,75.80
2023-02-08T04:42:41.517Z,75.70
2023-02-08T05:13:25.265Z,71.40
2023-02-08T05:15:57.194Z,69.10
2023-02-08T05:18:28.272Z,69.40
2023-02-08T05:21:05.202Z,94.50
2023-02-08T05:23:36.164Z,74.30
2023-02-08T05:26:12.226Z,68.80
2023-02-08T05:28:43.248Z,68.90
2023-02-08T05:31:18.715Z,68.50
2023-02-08T05:33:50.608Z,68.20
2023-02-08T05:36:28.271Z,66.40
2023-02-08T05:39:02.147Z,66.80
2023-02-08T05:41:33.891Z,67.40
2023-02-08T05:44:05.779Z,67.40
2023-02-08T05:46:38.441Z,68.80
2023-02-08T05:49:10.194Z,67.30
2023-02-08T05:51:44.648Z,70.30
2023-02-08T05:54:16.968Z,68.00
2023-02-08T05:56:48.468Z,65.70
2023-02-08T05:59:20.669Z,66.10
2023-02-08T06:01:52.387Z,64.40
2023-02-08T06:04:23.648Z,64.20
2023-02-08T06:06:54.777Z,61.40
2023-02-08T06:09:26.064Z,60.20
2023-02-08T06:11:58.342Z,62.30
2023-02-08T06:14:29.384Z,60.70
2023-02-08T06:17:00.936Z,61.00
2023-02-08T06:19:32.494Z,62.60
2023-02-08T06:22:03.714Z,61.60
2023-02-08T06:24:35.395Z,58.80
2023-02-08T06:27:06.264Z,60.60
2023-02-08T06:29:41.107Z,65.90
2023-02-08T06:32:16.634Z,70.30
2023-02-08T06:34:48.726Z,71.40
2023-02-08T06:37:20.019Z,72.60
2023-02-08T06:39:53.039Z,73.20
2023-02-08T06:42:23.524Z,72.60
2023-02-08T06:44:56.415Z,72.50
2023-02-08T06:47:28.456Z,72.80
2023-02-08T06:49:59.169Z,72.50
2023-02-08T06:52:30.553Z,72.30
2023-02-08T06:55:01.757Z,72.00
2023-02-08T06:57:32.470Z,72.20
2023-02-08T07:00:04.525Z,72.10
2023-02-08T07:02:38.596Z,71.80
2023-02-08T07:05:11.391Z,71.60
2023-02-08T07:07:43.081Z,71.60
2023-02-08T07:10:18.242Z,72.10
2023-02-08T07:12:49.651Z,72.10
2023-02-08T07:15:20.949Z,71.80
2023-02-08T07:17:53.307Z,72.00
2023-02-08T07:20:26.848Z,71.70
2023-02-08T07:22:59.218Z,72.00
2023-02-08T07:25:30.954Z,70.80
2023-02-08T07:28:02.783Z,70.80
2023-02-08T07:30:33.836Z,72.40
2023-02-08T07:33:04.728Z,70.80
2023-02-08T07:35:35.467Z,70.70
2023-02-08T07:38:06.258Z,70.40
2023-02-08T07:40:37.830Z,69.50
2023-02-08T07:43:09.923Z,68.80
2023-02-08T07:45:42.003Z,69.20
2023-02-08T07:48:12.957Z,69.10
2023-02-08T07:50:47.742Z,68.30
2023-02-08T07:53:20.324Z,68.80
2023-02-08T07:55:52.100Z,68.50
2023-02-08T07:58:22.739Z,69.50
2023-02-08T08:00:53.580Z,69.50
2023-02-08T08:03:25.486Z,69.50
2023-02-08T08:05:57.164Z,70.10
2023-02-08T08:08:28.855Z,69.80
2023-02-08T08:10:59.487Z,69.90
2023-02-08T08:13:30.336Z,70.10
2023-02-08T08:16:01.726Z,71.00
2023-02-08T08:18:34.495Z,71.80
2023-02-08T08:21:06.475Z,71.00
2023-02-08T08:23:37.740Z,70.50
2023-02-08T08:26:14.951Z,70.80
2023-02-08T08:28:47.845Z,71.60
2023-02-08T08:31:23.584Z,71.50
2023-02-08T08:33:59.366Z,71.80
2023-02-08T08:36:30.121Z,70.60
2023-02-08T08:39:02.046Z,70.40
2023-02-08T08:41:32.891Z,70.20
2023-02-08T08:44:04.026Z,70.20
2023-02-08T08:46:35.417Z,69.60
2023-02-08T08:49:09.020Z,69.20
2023-02-08T08:54:33.637Z,70.10
2023-02-08T08:57:06.925Z,69.80
2023-02-08T08:59:38.830Z,70.00
2023-02-08T09:02:10.436Z,70.20
2023-02-08T09:04:42.206Z,69.90
2023-02-08T09:07:14.413Z,70.00
2023-02-08T09:09:47.644Z,70.20
2023-02-08T09:12:19.290Z,70.30
2023-02-08T09:14:56.396Z,70.70
2023-02-08T09:17:28.089Z,71.50
2023-02-08T09:19:58.810Z,70.60
2023-02-08T09:22:32.774Z,70.10
2023-02-08T09:25:03.722Z,70.30
2023-02-08T09:27:34.382Z,70.40
2023-02-08T09:30:05.170Z,70.10
2023-02-08T09:32:37.888Z,70.20
2023-02-08T09:35:09.941Z,70.20
2023-02-08T09:37:40.648Z,70.20
2023-02-08T09:40:17.531Z,70.00
2023-02-08T09:42:50.765Z,70.50
2023-02-08T09:45:37.769Z,71.10
2023-02-08T09:48:26.728Z,70.90
2023-02-08T09:51:00.096Z,71.50
2023-02-08T09:53:40.952Z,71.00
2023-02-08T09:56:14.801Z,71.50
2023-02-08T09:58:48.117Z,71.40
2023-02-08T10:01:38.580Z,72.10
2023-02-08T10:04:25.495Z,71.50
2023-02-08T10:07:00.046Z,71.60
2023-02-08T10:09:31.264Z,71.70
2023-02-08T10:12:32.284Z,71.40
2023-02-08T10:15:19.089Z,71.50
2023-02-08T10:18:04.856Z,72.00
2023-02-08T10:20:59.061Z,72.30
2023-02-08T10:23:34.808Z,72.70
2023-02-08T10:26:27.291Z,73.00
2023-02-08T10:29:16.498Z,73.30
2023-02-08T10:32:06.783Z,74.40
2023-02-08T10:35:00.471Z,73.80
2023-02-08T10:37:45.012Z,74.10
2023-02-08T10:40:33.321Z,74.30
2023-02-08T10:43:38.434Z,74.50
2023-02-08T10:46:21.500Z,74.80
2023-02-08T10:48:55.575Z,74.80
2023-02-08T10:51:30.315Z,75.00
2023-02-08T10:54:01.223Z,75.30
2023-02-08T10:56:50.872Z,75.40
2023-02-08T10:59:24.824Z,75.60
2023-02-08T11:01:56.818Z,76.00
2023-02-08T11:04:27.704Z,76.20
2023-02-08T11:06:58.626Z,76.20
2023-02-08T11:09:31.783Z,76.50
2023-02-08T11:12:04.463Z,76.40
2023-02-08T11:14:46.609Z,76.60
2023-02-08T11:17:15.053Z,76.60
2023-02-08T11:19:47.627Z,76.80
2023-02-08T11:22:23.283Z,76.80
2023-02-08T11:25:06.644Z,77.00
2023-02-08T11:27:51.125Z,77.30
2023-02-08T11:30:24.733Z,77.50
2023-02-08T11:33:14.369Z,77.80
2023-02-08T11:35:45.761Z,77.90
2023-02-08T11:38:20.887Z,77.80
2023-02-08T11:40:51.592Z,78.00
2023-02-08T11:43:28.229Z,77.90
2023-02-08T11:46:03.911Z,77.90
2023-02-08T11:48:43.325Z,78.00
2023-02-08T11:51:16.338Z,78.10
2023-02-08T11:53:51.349Z,77.80
2023-02-08T11:56:30.323Z,77.90
2023-02-08T11:59:09.902Z,77.90
2023-02-08T12:01:44.815Z,77.90
2023-02-08T12:04:17.695Z,77.90
2023-02-08T12:06:54.023Z,78.00
2023-02-08T12:09:39.223Z,77.90
2023-02-08T12:12:13.791Z,78.00
2023-02-08T12:15:09.715Z,77.90
2023-02-08T12:17:49.008Z,77.90
2023-02-08T12:20:26.906Z,78.10
2023-02-08T12:23:00.135Z,78.00
2023-02-08T12:25:50.068Z,78.00
2023-02-08T12:28:26.082Z,78.00
2023-02-08T12:31:14.632Z,78.10
2023-02-08T12:33:48.145Z,78.40
2023-02-08T12:36:21.319Z,78.30
2023-02-08T12:39:19.928Z,78.20
2023-02-08T12:41:58.252Z,78.20
2023-02-08T12:44:50.542Z,78.40
2023-02-08T12:47:54.783Z,78.50
2023-02-08T12:50:35.772Z,78.50
2023-02-08T12:53:17.943Z,78.70
2023-02-08T12:55:51.176Z,78.70
2023-02-08T12:58:42.736Z,78.80
2023-02-08T13:01:19.149Z,79.00
2023-02-08T13:03:55.296Z,79.20
2023-02-08T13:06:30.036Z,79.10
2023-02-08T13:09:24.771Z,79.20
2023-02-08T13:12:03.917Z,79.30
2023-02-08T13:14:43.165Z,79.20
2023-02-08T13:17:22.188Z,79.40
2023-02-08T13:20:00.490Z,79.50
2023-02-08T13:22:34.956Z,79.50
2023-02-08T13:25:09.035Z,79.70
2023-02-08T13:27:39.894Z,80.00
2023-02-08T13:30:13.549Z,80.00
2023-02-08T13:32:46.791Z,80.20
2023-02-08T13:35:20.181Z,80.30
2023-02-08T13:37:56.318Z,80.50
2023-02-08T13:40:30.247Z,80.80
2023-02-08T13:43:06.431Z,80.90
2023-02-08T13:45:42.522Z,81.10
2023-02-08T13:48:18.644Z,81.50
2023-02-08T13:50:59.543Z,81.60
2023-02-08T13:53:45.070Z,82.00
2023-02-08T13:56:17.373Z,82.10
2023-02-08T13:58:53.800Z,82.20
2023-02-08T14:01:30.018Z,82.70
2023-02-08T14:04:15.832Z,82.90
2023-02-08T14:06:54.826Z,83.00
2023-02-08T14:09:47.590Z,83.20
2023-02-08T14:12:44.855Z,83.30
2023-02-08T14:15:20.835Z,83.50
2023-02-08T14:17:57.897Z,83.80
2023-02-08T14:20:35.541Z,84.10
2023-02-08T14:23:08.749Z,84.40
2023-02-08T14:25:47.957Z,84.70
2023-02-08T14:28:27.025Z,85.10
2023-02-08T14:31:00.459Z,85.20
2023-02-08T14:33:33.926Z,85.10
2023-02-08T14:36:07.417Z,86.30
2023-02-08T14:39:15.660Z,85.50
2023-02-08T14:41:55.737Z,85.60
2023-02-08T14:44:44.434Z,85.80
2023-02-08T14:47:34.422Z,86.00
2023-02-08T14:50:16.809Z,86.00
2023-02-08T14:53:01.909Z,86.50
2023-02-08T14:55:38.295Z,86.90
2023-02-08T14:58:10.783Z,87.10
2023-02-08T15:00:42.153Z,87.40
2023-02-08T15:03:15.332Z,87.40
2023-02-08T15:05:48.561Z,87.70
2023-02-08T15:08:21.813Z,88.20
2023-02-08T15:10:52.752Z,88.30
2023-02-08T15:13:26.083Z,88.10
2023-02-08T15:15:58.828Z,88.60
2023-02-08T15:18:32.160Z,89.10
2023-02-08T15:21:08.197Z,89.00
2023-02-08T15:23:38.985Z,89.30
2023-02-08T15:26:24.085Z,89.40
2023-02-08T15:28:55.180Z,89.50
2023-02-08T15:31:28.492Z,89.80
2023-02-08T15:34:01.301Z,89.90
2023-02-08T15:36:37.158Z,90.10
2023-02-08T15:39:19.213Z,90.20
2023-02-08T15:41:51.479Z,90.20
2023-02-08T15:44:28.994Z,90.10
2023-02-08T15:47:05.075Z,90.40
2023-02-08T15:49:38.622Z,90.40
2023-02-08T15:52:11.042Z,90.50
2023-02-08T15:54:41.718Z,90.50
2023-02-08T15:57:39.394Z,90.50
2023-02-08T16:00:15.564Z,90.60
2023-02-08T16:02:46.719Z,90.70
2023-02-08T16:05:26.293Z,90.60
2023-02-08T16:07:57.831Z,90.70
2023-02-08T16:10:38.038Z,90.70
2023-02-08T16:13:11.688Z,90.80
2023-02-08T16:15:46.108Z,90.90
2023-02-08T16:18:45.538Z,90.80
2023-02-08T16:21:28.306Z,90.90
2023-02-08T16:24:10.619Z,90.80
2023-02-08T16:26:55.942Z,90.90
2023-02-08T16:29:32.252Z,90.80
2023-02-08T16:32:24.473Z,90.80
2023-02-08T16:34:55.594Z,90.70
2023-02-08T16:37:34.704Z,90.50
2023-02-08T16:40:08.177Z,90.50
2023-02-08T16:45:34.372Z,90.50
2023-02-08T16:48:17.492Z,90.30
2023-02-08T16:50:37.133Z,90.50
2023-02-08T16:53:08.032Z,90.40
2023-02-08T16:55:40.200Z,90.40
2023-02-08T16:58:16.196Z,90.30
2023-02-08T17:00:46.948Z,90.30
2023-02-08T17:03:17.726Z,90.20
2023-02-08T17:05:49.615Z,90.30
2023-02-08T17:08:23.129Z,90.30
2023-02-08T17:10:55.210Z,90.30
2023-02-08T17:13:27.220Z,90.30
2023-02-08T17:15:59.516Z,90.20
2023-02-08T17:18:30.175Z,90.20
2023-02-08T17:21:01.956Z,90.20
2023-02-08T17:23:32.621Z,90.10
2023-02-08T17:26:03.286Z,90.20
2023-02-08T17:28:35.472Z,90.10
2023-02-08T17:31:06.680Z,90.20
2023-02-08T17:33:38.803Z,90.20
2023-02-08T17:36:11.117Z,90.20
2023-02-08T17:38:45.882Z,90.10
2023-02-08T17:41:20.580Z,90.30
2023-02-08T17:43:56.792Z,90.20
2023-02-08T17:46:31.625Z,90.20
2023-02-08T17:49:02.755Z,90.20
2023-02-08T17:51:34.104Z,90.10
2023-02-08T17:54:06.619Z,90.20
2023-02-08T17:56:37.527Z,90.20
2023-02-08T17:59:08.550Z,90.20
2023-02-08T18:01:39.348Z,90.20
2023-02-08T18:04:11.403Z,90.20
2023-02-08T18:06:42.108Z,90.20
2023-02-08T18:09:12.880Z,90.30
2023-02-08T18:11:43.553Z,90.20
2023-02-08T18:14:14.249Z,90.30
2023-02-08T18:16:44.906Z,90.30
2023-02-08T18:19:15.746Z,90.20
2023-02-08T18:21:46.387Z,90.20
2023-02-08T18:24:17.209Z,90.20
2023-02-08T18:26:47.856Z,90.20
2023-02-08T18:29:18.513Z,90.10
2023-02-08T18:31:49.478Z,90.10
2023-02-08T18:34:20.917Z,90.10
2023-02-08T18:36:51.580Z,90.50
2023-02-08T18:39:23.632Z,90.30
2023-02-08T18:41:54.784Z,90.50
2023-02-08T18:44:25.687Z,90.50
2023-02-08T18:46:56.416Z,90.50
2023-02-08T18:49:27.189Z,90.40
2023-02-08T18:51:57.847Z,90.40
2023-02-08T18:54:30.107Z,90.50
2023-02-08T18:59:51.869Z,90.80
2023-02-08T19:02:24.267Z,90.60
2023-02-08T19:04:55.179Z,90.70
2023-02-08T19:07:26.061Z,90.90
2023-02-08T19:09:56.747Z,91.00
2023-02-08T19:12:27.863Z,90.90
2023-02-08T19:14:58.711Z,91.00
2023-02-08T19:17:29.465Z,91.00
2023-02-08T19:20:00.371Z,91.00
2023-02-08T19:22:31.301Z,91.10
2023-02-08T19:25:02.039Z,91.60
2023-02-08T19:27:32.712Z,91.20
2023-02-08T19:30:03.515Z,91.30
2023-02-08T19:32:34.168Z,91.30
2023-02-08T19:35:04.858Z,91.40
2023-02-08T19:37:35.506Z,91.40
2023-02-08T19:40:07.833Z,91.40
2023-02-08T19:42:38.607Z,91.50
2023-02-08T19:45:10.273Z,91.40
2023-02-08T19:47:51.156Z,91.40
2023-02-08T19:50:13.790Z,91.40
2023-02-08T19:52:44.604Z,91.50
2023-02-08T19:55:15.320Z,91.50
2023-02-08T19:57:45.960Z,91.50
2023-02-08T20:00:23.995Z,91.50
2023-02-08T20:02:49.706Z,91.40
2023-02-08T20:05:20.763Z,91.40
2023-02-08T20:07:51.479Z,91.80
2023-02-08T20:10:22.399Z,91.40
2023-02-08T20:12:54.184Z,91.40
2023-02-08T20:15:24.858Z,91.40
2023-02-08T20:17:55.718Z,91.40
2023-02-08T20:20:26.457Z,91.40
2023-02-08T20:22:57.113Z,91.40
2023-02-08T20:25:27.886Z,91.30
2023-02-08T20:27:58.940Z,91.20
2023-02-08T20:30:29.691Z,91.20
2023-02-08T20:33:00.388Z,91.20
2023-02-08T20:35:31.202Z,91.00
2023-02-08T20:38:01.953Z,91.00
2023-02-08T20:40:32.885Z,90.90
2023-02-08T20:43:03.594Z,90.90
2023-02-08T20:45:34.258Z,90.80
2023-02-08T20:48:04.940Z,90.60
2023-02-08T20:50:35.737Z,90.50
2023-02-08T20:53:06.513Z,90.50
2023-02-08T20:55:37.265Z,90.40
2023-02-08T20:58:07.974Z,90.30
2023-02-08T21:00:42.655Z,90.30
2023-02-08T21:03:10.775Z,90.20
2023-02-08T21:05:41.626Z,90.20
2023-02-08T21:11:05.040Z,90.00
2023-02-08T21:13:35.776Z,90.10
2023-02-08T21:16:10.098Z,90.00
2023-02-08T21:18:42.458Z,90.00
2023-02-08T21:21:13.932Z,90.00
2023-02-08T21:23:46.193Z,90.10
2023-02-08T21:26:19.328Z,90.10
2023-02-08T21:28:51.619Z,90.70
2023-02-08T21:31:23.366Z,90.30
2023-02-08T21:33:54.970Z,90.30
2023-02-08T21:36:27.538Z,90.40
2023-02-08T21:38:59.514Z,90.40
2023-02-08T21:41:33.076Z,90.50
2023-02-08T21:44:05.475Z,90.60
2023-02-08T21:46:36.310Z,90.70
2023-02-08T21:49:25.172Z,91.20
2023-02-08T21:52:13.985Z,90.80
2023-02-08T21:54:46.153Z,90.90
2023-02-08T21:57:22.235Z,91.00
2023-02-08T21:59:55.250Z,91.10
2023-02-08T22:02:29.161Z,91.20
2023-02-08T22:05:21.136Z,91.60
2023-02-08T22:07:54.151Z,91.40
2023-02-08T22:10:27.396Z,91.30
2023-02-08T22:12:58.603Z,91.30
2023-02-08T22:15:31.249Z,91.20
2023-02-08T22:18:03.870Z,91.20
2023-02-08T22:20:35.213Z,91.20
2023-02-08T22:23:06.156Z,91.20
2023-02-08T22:25:36.878Z,91.10
2023-02-08T22:28:09.313Z,91.30
2023-02-08T22:30:40.028Z,91.40
2023-02-08T22:33:11.283Z,91.50
2023-02-08T22:35:42.109Z,91.50
2023-02-08T22:38:12.826Z,91.20
2023-02-08T22:40:44.338Z,91.60
2023-02-08T22:43:15.524Z,91.80
2023-02-08T22:45:46.372Z,91.60
2023-02-08T22:48:19.634Z,91.70
2023-02-08T22:50:50.234Z,91.60
2023-02-08T22:53:21.298Z,91.70
2023-02-08T22:55:54.628Z,92.20
2023-02-08T22:58:25.830Z,91.80
2023-02-08T23:00:56.490Z,91.80
2023-02-08T23:03:27.188Z,91.80
2023-02-08T23:05:57.871Z,91.90
2023-02-08T23:08:28.486Z,91.90
2023-02-08T23:11:03.760Z,92.00
2023-02-08T23:13:35.745Z,92.00
2023-02-08T23:16:07.123Z,91.90
2023-02-08T23:18:38.697Z,92.00
2023-02-08T23:21:10.670Z,92.10
2023-02-08T23:23:42.128Z,92.20
2023-02-08T23:26:15.466Z,92.20
2023-02-08T23:28:46.399Z,92.30
2023-02-08T23:31:17.610Z,92.30
2023-02-08T23:33:48.366Z,92.50
2023-02-08T23:36:22.114Z,92.70
2023-02-08T23:38:53.546Z,92.90
2023-02-08T23:41:26.473Z,93.20
2023-02-08T23:43:57.251Z,93.20
2023-02-08T23:46:30.169Z,93.20
2023-02-08T23:49:01.021Z,93.30
2023-02-08T23:51:31.802Z,93.00
2023-02-08T23:54:02.485Z,93.20
2023-02-08T23:56:33.880Z,93.20
2023-02-08T23:59:05.875Z,93.10
